This is the latest recevied weather packets stored in our database for station/object K9RCP-24. If no packets are shown the sender has not sent any weather packets the latest 10 day(s).
| Time | Temp. | Humidity | Pressure | Rain* | Wind** | Luminosity | Snow |
|---|---|---|---|---|---|---|---|
| 1777660246 | 17.78° C | 61% | 1021.3 hPa | 0 mm | - | - | - |
| 1777659090 | 18.33° C | 60% | 1021.7 hPa | 0 mm | - | - | - |
| 1777658945 | 17.78° C | 61% | 1021.7 hPa | 0 mm | - | - | - |
| 1777658684 | 17.22° C | 62% | 1021.7 hPa | 0 mm | - | - | - |
| 1777658278 | 16.67° C | 63% | 1021.7 hPa | 0 mm | - | - | - |
| 1777656511 | 16.67° C | 64% | 1021.7 hPa | 0 mm | - | - | - |
| 1777656253 | 16.67° C | 65% | 1021.7 hPa | 0 mm | - | - | - |
| 1777656003 | 16.67° C | 65% | 1021.7 hPa | 0 mm | - | - | - |
| 1777655128 | 15° C | 68% | 1021.7 hPa | 0 mm | - | - | - |
| 1777654134 | 15.56° C | 67% | 1021.7 hPa | 0 mm | - | - | - |
| 1777652761 | 15° C | 68% | 1021.7 hPa | 0 mm | - | - | - |
| 1777652265 | 14.44° C | 70% | 1021.7 hPa | 0 mm | - | - | - |
| 1777651610 | 13.33° C | 74% | 1021.7 hPa | 0 mm | - | - | - |
| 1777650491 | 12.78° C | 76% | 1022 hPa | 0 mm | - | - | - |
| 1777649282 | 12.22° C | 77% | 1021.7 hPa | 0 mm | - | - | - |
| 1777648149 | 12.22° C | 76% | 1021.7 hPa | 0 mm | - | - | - |
| 1777647352 | 12.22° C | 77% | 1021.7 hPa | 0 mm | - | - | - |
| 1777647229 | 12.22° C | 77% | 1021.7 hPa | 0 mm | - | - | - |
| 1777646707 | 11.67° C | 78% | 1021.3 hPa | 0 mm | - | - | - |
| 1777646685 | 11.67° C | 77% | 1021.3 hPa | 0 mm | - | - | - |
| 1777646044 | 11.67° C | 78% | 1021.7 hPa | 0 mm | - | - | - |
| 1777643826 | 10° C | 83% | 1021 hPa | 0 mm | - | - | - |
| 1777643161 | 9.44° C | 84% | 1020.7 hPa | 0 mm | - | - | - |
| 1777642113 | 8.89° C | 84% | 1020.7 hPa | 0 mm | - | - | - |
| 1777641989 | 8.89° C | 84% | 1020.7 hPa | 0 mm | - | - | - |
* Rain latest hour (hover to see other rain measurements)
** Current wind speed in m/s (hover to see current wind gust speed)